Time;durP1;ratioP1;P1;durP2;ratioP2;P2;SDS_P1;SDS_P2;PMS_P1;PMS_P2;Temp;Humidity;BMP_temperature;BMP_pressure;BME280_temperature;BME280_humidity;BME280_pressure;Samples;Min_cycle;Max_cycle;Signal;HPM_P1;HPM_P2
2024/04/09 21:33:15;;;;;;;;;3.00;1.00;;;;;8.85;64.48;102310.25;2187828;25;2728362;-73
2024/04/09 21:34:29;;;;;;;;;3.50;3.50;;;;;9.07;64.59;102314.59;2232446;25;2747152;-74
2024/04/09 21:35:43;;;;;;;;;7.83;7.17;;;;;9.25;64.13;102318.06;2199525;25;2760613;-74
2024/04/09 21:36:57;;;;;;;;;1.00;1.00;;;;;9.41;63.00;102319.78;2201393;25;2724188;-74
2024/04/09 21:38:10;;;;;;;;;2.50;1.67;;;;;9.58;63.08;102326.72;2213811;25;2739796;-74
2024/04/09 21:39:24;;;;;;;;;4.83;2.33;;;;;9.71;62.59;102327.56;2210951;25;2750203;-74
2024/04/09 21:40:38;;;;;;;;;5.50;5.50;;;;;9.84;62.63;102320.53;2205871;25;2742951;-74
2024/04/09 21:41:52;;;;;;;;;6.67;6.67;;;;;9.94;62.72;102317.84;2219101;25;2758541;-74
2024/04/09 21:43:06;;;;;;;;;2.67;2.67;;;;;10.06;61.96;102337.94;2230470;25;2734662;-74
2024/04/09 21:44:19;;;;;;;;;3.17;3.17;;;;;10.15;62.54;102323.88;2230713;25;2739834;-74
2024/04/09 21:45:34;;;;;;;;;4.17;1.33;;;;;10.25;62.03;102328.19;2229889;25;2738806;-75
2024/04/09 21:46:48;;;;;;;;;4.00;3.67;;;;;10.34;61.86;102337.78;2191541;25;2746070;-74
2024/04/09 21:48:01;;;;;;;;;2.33;2.33;;;;;10.40;61.97;102332.47;2199739;25;2738765;-74
2024/04/09 21:49:15;;;;;;;;;2.50;2.50;;;;;10.49;61.78;102331.56;2214573;25;2734647;-74
2024/04/09 21:50:29;;;;;;;;;2.33;2.33;;;;;10.55;61.55;102334.16;2192087;25;2737752;-74
2024/04/09 21:51:43;;;;;;;;;4.83;3.00;;;;;10.63;61.67;102338.50;2245916;25;2736655;-74
2024/04/09 21:52:57;;;;;;;;;1.50;1.50;;;;;10.67;60.56;102338.47;2227548;25;2739812;-74
2024/04/09 21:54:10;;;;;;;;;2.50;2.50;;;;;10.71;60.27;102344.56;2233273;25;2738738;-74
2024/04/09 21:55:21;;;;;;;;;2.67;2.67;;;;;10.75;60.33;102342.78;2244530;25;1820013;-74
2024/04/09 21:56:35;;;;;;;;;5.17;3.33;;;;;10.78;61.02;102346.28;2212608;25;2738759;-74
2024/04/09 21:57:49;;;;;;;;;3.17;2.17;;;;;10.84;60.63;102342.69;2244249;25;2745451;-74
2024/04/09 21:59:03;;;;;;;;;2.00;2.00;;;;;10.86;60.57;102343.59;2242714;25;2742964;-74
2024/04/09 22:00:20;;;;;;;;;3.33;3.17;;;;;10.89;60.55;102351.44;2205572;25;2749182;-74
2024/04/09 22:01:33;;;;;;;;;5.00;1.50;;;;;10.93;61.14;102348.78;2244895;25;2743293;-74
2024/04/09 22:02:47;;;;;;;;;2.83;1.33;;;;;10.92;60.76;102340.00;2221209;25;2739827;-74
2024/04/09 22:03:58;;;;;;;;;2.67;1.00;;;;;10.98;59.41;102349.63;2176470;25;3450200;-74
2024/04/09 22:05:09;;;;;;;;;6.00;6.00;;;;;10.99;60.07;102349.59;2215395;25;2761059;-74
2024/04/09 22:06:20;;;;;;;;;7.33;7.33;;;;;11.00;60.04;102351.34;2208095;25;2758533;-74
2024/04/09 22:07:34;;;;;;;;;5.17;5.17;;;;;11.00;60.19;102351.34;2229628;25;2755433;-74
2024/04/09 22:08:46;;;;;;;;;10.00;8.00;;;;;11.05;59.99;102366.22;2174723;25;3502289;-74
2024/04/09 22:09:59;;;;;;;;;4.83;4.83;;;;;11.06;59.61;102360.97;2232497;25;2750192;-74
2024/04/09 22:11:11;;;;;;;;;7.67;7.00;;;;;11.05;59.80;102360.97;2212815;25;2758529;-74
2024/04/09 22:12:22;;;;;;;;;8.67;7.33;;;;;11.05;59.94;102355.69;2215115;25;2765829;-74
2024/04/09 22:13:34;;;;;;;;;9.50;9.50;;;;;11.07;60.01;102354.78;2230669;25;1864290;-74
2024/04/09 22:14:45;;;;;;;;;10.00;9.50;;;;;11.07;59.72;102360.06;2214533;25;2784593;-74
2024/04/09 22:15:56;;;;;;;;;8.67;8.00;;;;;11.10;59.63;102353.91;2215606;25;3474153;-74
2024/04/09 22:17:07;;;;;;;;;9.00;7.00;;;;;11.14;59.47;102366.13;2197814;25;3484542;-74
2024/04/09 22:18:21;;;;;;;;;6.33;5.67;;;;;11.12;59.68;102360.00;2229475;25;2752339;-74
2024/04/09 22:19:35;;;;;;;;;7.00;7.00;;;;;11.14;59.47;102368.75;2211216;25;3460588;-74
2024/04/09 22:20:46;;;;;;;;;8.00;7.33;;;;;11.13;59.41;102365.28;2219911;25;1839781;-74
2024/04/09 22:21:58;;;;;;;;;13.75;9.25;;;;;11.15;59.95;102367.88;2194713;25;1839877;-74
2024/04/09 22:23:12;;;;;;;;;8.00;8.00;;;;;11.15;59.46;102375.78;2212052;25;2757652;-74
2024/04/09 22:24:25;;;;;;;;;4.17;2.67;;;;;11.13;59.33;102367.91;2245577;25;2745026;-74
2024/04/09 22:25:36;;;;;;;;;4.33;4.00;;;;;11.10;59.16;102364.41;2190413;25;2749556;-74
2024/04/09 22:26:47;;;;;;;;;7.00;6.00;;;;;11.10;58.99;102374.94;2213965;25;2747071;-74
2024/04/09 22:27:59;;;;;;;;;2.50;2.50;;;;;11.08;58.66;102374.09;2216383;25;2750462;-74
2024/04/09 22:29:11;;;;;;;;;7.75;6.00;;;;;11.05;59.44;102377.63;2231845;25;1847164;-74
2024/04/09 22:30:22;;;;;;;;;7.00;4.00;;;;;11.06;59.43;102375.88;2213603;25;3454358;-74
2024/04/09 22:31:35;;;;;;;;;6.67;5.00;;;;;11.07;59.49;102375.84;2245114;25;2747060;-74
2024/04/09 22:32:52;;;;;;;;;9.00;5.67;;;;;11.06;59.11;102373.25;2214081;25;3468989;-74
2024/04/09 22:34:06;;;;;;;;;5.00;5.00;;;;;11.06;59.25;102378.50;2242951;25;2745018;-74
2024/04/09 22:35:20;;;;;;;;;3.00;3.00;;;;;11.08;59.69;102379.34;2243830;25;2748171;-74
2024/04/09 22:36:31;;;;;;;;;6.67;6.33;;;;;11.09;59.33;102378.44;2211386;25;3464778;-74
2024/04/09 22:37:42;;;;;;;;;6.33;4.67;;;;;11.09;59.26;102384.59;2200971;25;2753435;-74
2024/04/09 22:38:54;;;;;;;;;8.00;7.00;;;;;11.08;59.44;102389.88;2200521;25;2760627;-74
2024/04/09 22:40:08;;;;;;;;;6.00;6.00;;;;;11.08;59.53;102382.00;2204697;25;2751300;-74
2024/04/09 22:41:22;;;;;;;;;7.50;7.50;;;;;11.08;60.17;102380.25;2242709;25;2758529;-74
2024/04/09 22:42:35;;;;;;;;;7.67;6.67;;;;;11.10;59.50;102394.25;2202496;25;2754366;-74
2024/04/09 22:43:46;;;;;;;;;6.33;6.33;;;;;11.09;59.16;102388.97;2199115;25;2750237;-74
2024/04/09 22:44:57;;;;;;;;;9.67;8.33;;;;;11.13;59.46;102401.25;2211181;25;1847060;-74
2024/04/09 22:46:08;;;;;;;;;8.67;8.00;;;;;11.12;59.20;102396.84;2182723;25;2757524;-74
2024/04/09 22:47:19;;;;;;;;;6.00;5.00;;;;;11.10;58.61;102396.00;2193577;25;2748132;-73
2024/04/09 22:48:31;;;;;;;;;5.67;5.67;;;;;11.12;59.48;102396.84;2194860;25;2744438;-74
2024/04/09 22:49:44;;;;;;;;;7.50;6.83;;;;;11.11;59.51;102397.75;2237421;25;2753361;-74
2024/04/09 22:50:58;;;;;;;;;3.67;3.67;;;;;11.10;59.54;102399.50;2191288;25;3462710;-74
2024/04/09 22:52:09;;;;;;;;;9.00;3.50;;;;;11.10;58.75;102396.88;2193666;25;2750219;-74
2024/04/09 22:53:20;;;;;;;;;6.50;3.50;;;;;11.08;59.28;102403.03;2205187;25;2760627;-74
2024/04/09 22:54:34;;;;;;;;;5.33;5.33;;;;;11.07;59.35;102402.16;2200198;25;1836682;-74
2024/04/09 22:55:56;;;;;;;;;8.67;8.67;;;;;11.09;59.75;102404.75;2168274;25;2771163;-74
2024/04/09 22:57:08;;;;;;;;;9.00;9.00;;;;;11.09;59.28;102405.66;2207623;25;3502304;-74
2024/04/09 22:58:19;;;;;;;;;11.00;9.00;;;;;11.08;59.37;102408.31;2208505;25;3495248;-74
2024/04/09 22:59:33;;;;;;;;;9.00;6.00;;;;;11.08;58.64;102410.94;2193548;25;2757526;-74
2024/04/09 23:00:47;;;;;;;;;8.17;7.67;;;;;11.08;59.25;102413.56;2225666;25;2753372;-74
2024/04/09 23:01:58;;;;;;;;;9.67;9.67;;;;;11.07;59.03;102409.19;2183834;25;1841867;-74
2024/04/09 23:03:12;;;;;;;;;6.83;6.17;;;;;11.03;59.11;102417.13;2204186;25;2745044;-74
2024/04/09 23:04:26;;;;;;;;;4.33;4.33;;;;;11.03;58.66;102419.75;2232702;25;2741883;-74
2024/04/09 23:05:37;;;;;;;;;6.67;6.00;;;;;11.03;59.30;102422.38;2225326;25;1827291;-74
2024/04/09 23:06:48;;;;;;;;;9.00;5.00;;;;;11.02;59.39;102418.00;2183888;25;2480400;-74
2024/04/09 23:07:59;;;;;;;;;5.00;3.00;;;;;11.02;58.95;102425.00;2194870;25;2747102;-74
2024/04/09 23:09:15;;;;;;;;;7.67;6.17;;;;;11.00;59.58;102427.66;2219760;25;2745989;-74
2024/04/09 23:10:27;;;;;;;;;9.50;9.50;;;;;11.02;59.61;102425.00;2184678;25;1853477;-74
2024/04/09 23:11:42;;;;;;;;;7.17;6.00;;;;;11.02;59.30;102430.25;2235874;25;2755800;-73
2024/04/09 23:12:55;;;;;;;;;3.33;3.00;;;;;11.01;59.34;102429.38;2239073;25;2742334;-74
2024/04/09 23:14:09;;;;;;;;;4.83;4.50;;;;;11.01;59.26;102433.81;2213184;25;2748203;-74
2024/04/09 23:15:23;;;;;;;;;7.50;5.33;;;;;10.99;59.04;102431.16;2228208;25;2752290;-74
2024/04/09 23:16:34;;;;;;;;;5.00;4.00;;;;;11.00;59.35;102440.81;2168124;25;2750241;-74
2024/04/09 23:17:48;;;;;;;;;4.33;3.00;;;;;10.99;58.88;102441.69;2221653;25;2747146;-74
2024/04/09 23:18:59;;;;;;;;;5.67;3.67;;;;;10.98;58.49;102433.81;2192220;25;3448136;-74
2024/04/09 23:20:12;;;;;;;;;4.83;4.50;;;;;11.00;58.95;102445.19;2207828;25;2752301;-74
2024/04/09 23:21:26;;;;;;;;;3.83;3.50;;;;;10.99;58.81;102440.81;2224585;25;2741090;-74
2024/04/09 23:22:37;;;;;;;;;5.67;5.33;;;;;11.03;59.27;102442.53;2192519;25;3454393;-74
2024/04/09 23:23:51;;;;;;;;;6.67;5.17;;;;;11.02;58.90;102446.06;2221618;25;2752383;-74
2024/04/09 23:25:05;;;;;;;;;5.83;5.50;;;;;11.03;58.98;102448.69;2227307;25;2736679;-74
2024/04/09 23:26:19;;;;;;;;;6.67;5.00;;;;;11.01;59.00;102445.16;2237404;25;2747125;-74
2024/04/09 23:27:30;;;;;;;;;7.33;3.00;;;;;10.97;58.92;102438.19;2167372;25;3476240;-74
2024/04/09 23:28:44;;;;;;;;;8.50;5.00;;;;;10.97;59.31;102443.47;2208696;25;2748121;-74
2024/04/09 23:29:55;;;;;;;;;9.33;7.00;;;;;10.99;58.74;102449.56;2193432;25;2763898;-74
2024/04/09 23:31:06;;;;;;;;;7.67;5.33;;;;;10.97;59.21;102448.72;2190763;25;3470007;-74
2024/04/09 23:32:17;;;;;;;;;10.00;8.00;;;;;10.96;59.59;102444.34;2192314;25;3485599;-74
2024/04/09 23:33:28;;;;;;;;;10.33;9.33;;;;;10.98;59.58;102445.22;2207100;25;3510721;-74
2024/04/09 23:34:39;;;;;;;;;11.67;9.67;;;;;10.97;59.62;102451.34;2184998;25;3515849;-73
2024/04/09 23:35:51;;;;;;;;;15.50;13.00;;;;;10.98;59.61;102447.84;2182311;25;2817910;-73
2024/04/09 23:37:02;;;;;;;;;9.67;9.67;;;;;10.96;59.55;102443.47;2192865;25;3507493;-73
2024/04/09 23:38:13;;;;;;;;;8.33;8.33;;;;;10.97;59.85;102440.81;2192746;25;3498087;-74
2024/04/09 23:39:28;;;;;;;;;12.00;11.00;;;;;10.99;59.64;102446.06;2192736;25;3525194;-74
2024/04/09 23:40:40;;;;;;;;;11.00;10.00;;;;;10.99;59.12;102439.06;2199108;25;3527285;-74
2024/04/09 23:41:51;;;;;;;;;9.00;9.00;;;;;10.97;58.84;102448.72;2199185;25;2778477;-74
2024/04/09 23:43:02;;;;;;;;;9.00;6.00;;;;;10.97;59.07;102446.09;2198519;25;3476225;-74
2024/04/09 23:44:14;;;;;;;;;7.67;5.67;;;;;10.95;59.17;102442.59;2206718;25;1838782;-74
2024/04/09 23:45:25;;;;;;;;;10.00;10.00;;;;;10.95;59.61;102445.22;2167889;25;3512094;-74
2024/04/09 23:46:37;;;;;;;;;15.00;13.75;;;;;10.95;60.04;102450.50;2194369;25;1859548;-74
2024/04/09 23:47:48;;;;;;;;;12.33;12.33;;;;;10.95;58.94;102442.59;2191997;25;3531455;-74
2024/04/09 23:49:02;;;;;;;;;4.67;4.67;;;;;10.94;59.19;102453.16;2237492;25;2749213;-74
2024/04/09 23:50:13;;;;;;;;;10.33;9.33;;;;;10.93;59.45;102454.91;2204592;25;3499188;-74
2024/04/09 23:51:24;;;;;;;;;9.00;9.00;;;;;10.90;59.50;102457.53;2207449;25;3494983;-73
2024/04/09 23:52:38;;;;;;;;;6.67;6.67;;;;;10.88;58.88;102454.06;2237099;25;2754382;-73
2024/04/09 23:53:49;;;;;;;;;8.00;7.67;;;;;10.84;59.09;102458.44;2192485;25;2755428;-73
2024/04/09 23:55:00;;;;;;;;;7.33;7.33;;;;;10.85;59.09;102459.31;2180209;25;3477263;-74
2024/04/09 23:56:11;;;;;;;;;12.00;10.00;;;;;10.80;59.20;102457.59;2179263;25;3513728;-74
2024/04/09 23:57:22;;;;;;;;;10.33;10.00;;;;;10.82;59.46;102452.31;2191538;25;3516840;-74
2024/04/09 23:58:33;;;;;;;;;17.33;14.67;;;;;10.82;59.79;102457.59;2199223;25;3553753;-74
2024/04/09 23:59:44;;;;;;;;;10.67;10.67;;;;;10.83;58.65;102467.25;2166370;25;2796165;-74
